Time;durP1;ratioP1;P1;durP2;ratioP2;P2;SDS_P1;SDS_P2;PMS_P1;PMS_P2;Temp;Humidity;BMP_temperature;BMP_pressure;BME280_temperature;BME280_humidity;BME280_pressure;Samples;Min_cycle;Max_cycle;Signal;HPM_P1;HPM_P2
2021/12/23 00:00:11;;;;;;;30.65;12.00;;;;;;;-7.54;95.05;95876.75;5113635;27;20040;-75
2021/12/23 00:02:41;;;;;;;28.58;15.65;;;;;;;-7.54;93.90;95879.28;5114513;27;20118;-74
2021/12/23 00:05:10;;;;;;;20.73;10.65;;;;;;;-7.60;93.27;95868.69;5106624;27;20043;-74
2021/12/23 00:07:37;;;;;;;18.80;9.77;;;;;;;-7.64;91.79;95878.19;5101953;28;20047;-74
2021/12/23 00:10:09;;;;;;;12.60;7.03;;;;;;;-7.68;90.61;95871.72;5107976;27;20045;-74
2021/12/23 00:12:42;;;;;;;18.25;8.27;;;;;;;-7.68;90.30;95884.34;5113992;27;20117;-74
2021/12/23 00:15:30;;;;;;;15.35;9.15;;;;;;;-7.71;90.17;95882.00;5112854;27;20471;-74
2021/12/23 00:26:08;;;;;;;9.38;5.68;;;;;;;-7.86;88.88;95882.94;5043101;28;20041;-74
2021/12/23 00:28:35;;;;;;;13.88;6.97;;;;;;;-8.01;88.77;95875.38;5101677;28;20056;-74
2021/12/23 00:31:02;;;;;;;13.70;6.38;;;;;;;-8.13;92.23;95891.25;5111375;28;20031;-74
2021/12/23 00:33:30;;;;;;;14.07;8.27;;;;;;;-8.22;93.62;95886.75;5090877;28;20051;-74
2021/12/23 00:35:57;;;;;;;18.95;10.30;;;;;;;-8.43;97.39;95894.69;5116893;28;20090;-74
2021/12/23 00:38:33;;;;;;;15.35;8.30;;;;;;;-8.33;96.65;95890.69;5111427;27;20039;-74
2021/12/23 00:41:02;;;;;;;14.30;6.72;;;;;;;-8.30;95.26;95877.91;5095810;28;20039;-74
2021/12/23 00:43:30;;;;;;;11.68;7.70;;;;;;;-8.22;94.21;95887.56;5114395;27;20046;-74
2021/12/23 00:45:58;;;;;;;15.85;7.93;;;;;;;-8.30;93.86;95869.47;5110876;27;20054;-74
2021/12/23 00:48:25;;;;;;;13.00;7.35;;;;;;;-8.20;93.38;95890.78;5116190;27;20047;-74
2021/12/23 00:50:53;;;;;;;16.77;8.75;;;;;;;-8.16;93.39;95896.50;5115057;27;21112;-74
2021/12/23 00:53:23;;;;;;;21.45;8.13;;;;;;;-8.31;96.24;95888.91;5109617;27;20128;-73
2021/12/23 00:55:53;;;;;;;12.43;6.10;;;;;;;-8.26;95.37;95886.91;5106461;27;20166;-74
2021/12/23 00:58:22;;;;;;;15.57;6.82;;;;;;;-8.39;94.60;95865.81;5110896;27;20067;-74
2021/12/23 01:00:49;;;;;;;10.38;7.47;;;;;;;-8.76;98.13;95875.50;5094605;27;20519;-73
2021/12/23 01:03:16;;;;;;;11.52;5.75;;;;;;;-8.83;99.08;95861.59;5099375;27;20126;-73
2021/12/23 01:05:43;;;;;;;8.30;5.07;;;;;;;-8.61;98.36;95860.38;5115449;27;20045;-74
2021/12/23 01:08:10;;;;;;;11.18;6.28;;;;;;;-8.82;98.45;95873.34;5114966;27;20045;-73
2021/12/23 01:10:37;;;;;;;11.73;4.45;;;;;;;-8.96;100.00;95865.72;5118276;27;20067;-74
2021/12/23 01:13:05;;;;;;;9.88;5.93;;;;;;;-9.01;100.00;95872.75;5116029;27;20031;-74
2021/12/23 01:18:12;;;;;;;8.93;5.80;;;;;;;-9.25;100.00;95876.53;5111937;27;20119;-73
2021/12/23 01:20:52;;;;;;;12.32;4.85;;;;;;;-9.10;100.00;95869.00;5116549;27;20440;-73
2021/12/23 01:23:21;;;;;;;21.48;6.60;;;;;;;-9.14;100.00;95857.47;5118180;27;20054;-73
2021/12/23 01:25:50;;;;;;;6.25;3.83;;;;;;;-8.95;100.00;95867.34;5115413;27;20035;-73
2021/12/23 01:28:18;;;;;;;15.95;7.25;;;;;;;-8.92;100.00;95867.19;5113729;27;20122;-73
2021/12/23 01:30:45;;;;;;;49.40;22.38;;;;;;;-9.27;100.00;95814.44;5096536;27;20688;-73
2021/12/23 01:33:12;;;;;;;45.70;17.58;;;;;;;-8.81;100.00;95869.91;5099946;28;20100;-74
2021/12/23 01:35:40;;;;;;;39.00;15.48;;;;;;;-8.82;99.07;95848.09;5109740;27;20058;-74
2021/12/23 01:38:08;;;;;;;24.70;10.80;;;;;;;-8.78;99.31;95854.59;5112185;27;20039;-73
2021/12/23 01:40:35;;;;;;;11.63;6.05;;;;;;;-8.79;98.44;95857.19;5115670;27;20035;-73
2021/12/23 01:43:04;;;;;;;43.03;15.40;;;;;;;-8.74;97.77;95865.31;5114242;27;20036;-73
2021/12/23 01:45:33;;;;;;;21.65;10.95;;;;;;;-8.73;97.28;95856.81;5113432;27;20477;-73
2021/12/23 01:48:02;;;;;;;16.50;6.72;;;;;;;-8.62;96.49;95854.53;5111744;27;20134;-73
2021/12/23 01:50:30;;;;;;;12.48;5.47;;;;;;;-8.62;95.78;95853.69;5113067;27;20582;-73
2021/12/23 01:52:59;;;;;;;6.72;3.67;;;;;;;-8.82;98.12;95863.25;5111426;27;20051;-73
2021/12/23 01:55:27;;;;;;;6.40;3.85;;;;;;;-8.74;97.27;95860.28;5094139;27;20126;-73
2021/12/23 01:57:55;;;;;;;13.32;6.10;;;;;;;-8.67;96.48;95852.25;5105643;28;20126;-73
2021/12/23 02:00:26;;;;;;;8.32;3.88;;;;;;;-8.74;95.55;95861.06;5109037;27;22817;-73
2021/12/23 02:02:55;;;;;;;10.25;4.05;;;;;;;-8.76;94.76;95851.97;5100534;27;20039;-74
2021/12/23 02:05:23;;;;;;;3.55;2.67;;;;;;;-8.87;94.29;95838.25;5116003;27;20050;-73
2021/12/23 02:07:50;;;;;;;7.53;4.05;;;;;;;-8.76;93.46;95857.84;5108881;27;20050;-74
2021/12/23 02:10:18;;;;;;;3.22;2.42;;;;;;;-8.76;93.25;95872.19;5096199;27;20095;-73
2021/12/23 02:12:47;;;;;;;5.18;2.75;;;;;;;-8.81;92.81;95852.22;5108416;27;20043;-73
2021/12/23 02:15:15;;;;;;;4.22;2.15;;;;;;;-8.87;93.44;95850.06;5113927;27;20039;-74
2021/12/23 02:17:43;;;;;;;10.55;3.85;;;;;;;-8.86;93.26;95847.44;5117421;27;20045;-73
2021/12/23 02:20:13;;;;;;;3.55;2.78;;;;;;;-8.80;93.13;95866.50;5116587;27;20809;-73
2021/12/23 02:22:42;;;;;;;5.97;3.42;;;;;;;-8.81;93.41;95864.84;5110451;27;20147;-73
2021/12/23 02:25:11;;;;;;;8.02;4.72;;;;;;;-8.84;93.61;95854.91;5089903;28;20082;-73
2021/12/23 02:27:42;;;;;;;8.25;4.93;;;;;;;-8.81;93.42;95859.81;5110150;27;20050;-73
2021/12/23 02:30:15;;;;;;;9.23;5.05;;;;;;;-8.90;93.90;95861.13;5113083;27;20059;-73
2021/12/23 02:32:42;;;;;;;9.65;5.70;;;;;;;-8.85;94.27;95863.41;5112881;27;20446;-73
2021/12/23 02:35:13;;;;;;;10.48;5.72;;;;;;;-8.95;95.28;95847.13;5114097;27;20500;-73
2021/12/23 02:37:41;;;;;;;7.05;4.63;;;;;;;-9.07;96.96;95839.38;5113134;27;20039;-73
2021/12/23 02:40:11;;;;;;;12.32;6.63;;;;;;;-8.92;96.21;95846.97;5111422;27;20044;-73
2021/12/23 02:42:38;;;;;;;15.07;7.22;;;;;;;-8.85;95.58;95850.78;5115699;27;20154;-73
2021/12/23 02:45:09;;;;;;;13.50;7.28;;;;;;;-8.87;94.88;95850.06;5106990;27;20136;-73
2021/12/23 02:47:37;;;;;;;13.38;6.70;;;;;;;-9.04;97.02;95859.41;5090993;28;20467;-73
2021/12/23 02:50:05;;;;;;;10.90;6.28;;;;;;;-9.01;96.19;95852.53;5106943;27;20038;-73
2021/12/23 02:52:34;;;;;;;9.88;5.00;;;;;;;-9.04;95.50;95859.41;5112286;27;20608;-74
2021/12/23 02:55:01;;;;;;;9.02;3.75;;;;;;;-8.99;94.84;95855.78;5116420;27;20048;-74
2021/12/23 02:57:32;;;;;;;4.25;2.85;;;;;;;-8.98;94.33;95853.19;5107611;27;20468;-74
2021/12/23 03:00:00;;;;;;;2.55;1.88;;;;;;;-9.06;93.50;95843.50;5114703;27;20162;-73
2021/12/23 03:02:27;;;;;;;6.53;2.60;;;;;;;-9.29;94.61;95818.72;5114191;27;20046;-73
2021/12/23 03:04:53;;;;;;;5.78;3.53;;;;;;;-9.12;94.02;95836.28;5113588;27;20555;-73
2021/12/23 03:07:20;;;;;;;7.60;3.72;;;;;;;-9.61;99.05;95844.03;5112386;27;20062;-74
2021/12/23 03:09:47;;;;;;;10.45;3.47;;;;;;;-9.48;98.87;95839.13;5108288;27;20044;-73
2021/12/23 03:12:15;;;;;;;4.38;3.15;;;;;;;-9.43;98.02;95830.41;5110824;27;20496;-74
2021/12/23 03:14:41;;;;;;;12.00;3.60;;;;;;;-9.44;97.78;95830.50;5097342;28;20173;-73
2021/12/23 03:17:08;;;;;;;10.38;6.13;;;;;;;-9.27;97.69;95842.19;5108218;27;20038;-73
2021/12/23 03:19:35;;;;;;;5.78;3.60;;;;;;;-9.28;97.06;95835.50;5092420;27;20039;-74
2021/12/23 03:22:03;;;;;;;5.65;4.07;;;;;;;-9.31;96.08;95833.16;5091227;28;20043;-73
2021/12/23 03:24:30;;;;;;;3.92;3.13;;;;;;;-9.21;95.65;95849.41;5110889;27;20088;-73
2021/12/23 03:26:57;;;;;;;8.63;4.00;;;;;;;-9.57;98.51;95829.53;5109544;27;20048;-73
2021/12/23 03:29:24;;;;;;;18.75;5.18;;;;;;;-9.38;97.70;95849.53;5113752;27;20036;-73
2021/12/23 03:31:51;;;;;;;11.43;4.65;;;;;;;-9.36;96.64;95850.25;5106669;27;20086;-73
2021/12/23 03:34:18;;;;;;;15.95;5.95;;;;;;;-9.47;95.91;95834.00;5116155;27;20047;-73
2021/12/23 03:36:44;;;;;;;9.52;4.47;;;;;;;-9.37;95.35;95841.06;5117077;27;20118;-74
2021/12/23 03:39:11;;;;;;;8.68;3.78;;;;;;;-9.39;94.90;95842.88;5119095;27;20039;-74
2021/12/23 03:41:38;;;;;;;7.72;4.38;;;;;;;-9.48;94.83;95834.88;5107971;27;20047;-73
2021/12/23 03:44:05;;;;;;;16.85;4.78;;;;;;;-9.33;94.34;95847.56;5108165;27;20039;-73
2021/12/23 03:46:32;;;;;;;14.18;3.72;;;;;;;-9.26;93.88;95843.81;5115671;27;20043;-73
2021/12/23 03:48:59;;;;;;;7.30;3.67;;;;;;;-9.27;93.37;95850.56;5116816;27;20046;-74
2021/12/23 03:51:26;;;;;;;7.60;5.13;;;;;;;-9.37;92.83;95836.03;5116899;27;20053;-73
2021/12/23 03:53:53;;;;;;;11.02;4.88;;;;;;;-9.35;92.77;95839.28;5111336;27;20059;-73
2021/12/23 03:56:20;;;;;;;7.28;3.08;;;;;;;-9.33;93.30;95829.91;5111336;27;20054;-73
2021/12/23 03:58:47;;;;;;;7.50;2.80;;;;;;;-9.36;94.25;95837.63;5109953;27;20039;-73
2021/12/23 04:01:14;;;;;;;4.72;3.28;;;;;;;-9.32;94.03;95834.06;5107462;27;20054;-73
2021/12/23 04:03:41;;;;;;;10.18;3.70;;;;;;;-9.21;93.30;95851.94;5109164;27;20766;-73
2021/12/23 04:06:08;;;;;;;5.28;2.88;;;;;;;-9.23;92.88;95853.75;5110303;27;20039;-72
2021/12/23 04:08:35;;;;;;;2.78;2.05;;;;;;;-9.42;92.68;95814.38;5092465;28;20058;-73
2021/12/23 04:11:02;;;;;;;12.10;2.17;;;;;;;-9.23;92.34;95843.66;5091900;28;20043;-73
2021/12/23 04:13:29;;;;;;;7.32;2.85;;;;;;;-9.28;91.81;95850.66;5106492;27;20063;-73
2021/12/23 04:15:56;;;;;;;7.50;4.13;;;;;;;-9.34;91.80;95846.75;5111197;27;20039;-73
2021/12/23 04:18:23;;;;;;;4.57;2.40;;;;;;;-9.30;91.52;95854.97;5102951;28;20055;-73
2021/12/23 04:20:53;;;;;;;3.92;2.35;;;;;;;-9.33;91.24;95862.69;5110859;28;20040;-73
2021/12/23 04:23:25;;;;;;;4.60;2.70;;;;;;;-9.37;91.19;95851.16;5109025;28;20050;-73
2021/12/23 04:25:52;;;;;;;4.05;2.65;;;;;;;-9.34;90.91;95856.03;5103621;28;20036;-72
2021/12/23 04:28:20;;;;;;;3.42;2.75;;;;;;;-9.35;90.98;95855.22;5117392;28;20051;-72
2021/12/23 04:30:48;;;;;;;5.20;2.85;;;;;;;-9.46;90.71;95853.28;5110318;28;20156;-72
2021/12/23 04:33:15;;;;;;;6.82;3.47;;;;;;;-9.51;90.52;95854.41;5114393;28;20108;-72
2021/12/23 04:35:42;;;;;;;7.35;2.88;;;;;;;-9.46;90.39;95858.31;5114068;28;20050;-72
2021/12/23 04:38:09;;;;;;;4.85;3.30;;;;;;;-9.60;90.06;95840.59;5107895;28;20035;-72
2021/12/23 04:40:37;;;;;;;5.45;2.45;;;;;;;-9.56;90.16;95859.72;5109545;28;20500;-72
2021/12/23 04:43:06;;;;;;;4.72;3.03;;;;;;;-9.50;89.85;95861.91;5094383;28;20040;-72
2021/12/23 04:45:33;;;;;;;7.90;5.03;;;;;;;-9.50;89.76;95861.91;5110327;28;20501;-72
2021/12/23 04:48:01;;;;;;;7.28;3.58;;;;;;;-9.53;89.68;95867.09;5112301;28;20043;-72
2021/12/23 04:50:28;;;;;;;6.80;4.13;;;;;;;-9.62;90.01;95852.47;5111372;28;20039;-72
2021/12/23 04:52:55;;;;;;;6.65;2.72;;;;;;;-9.73;90.12;95824.50;5110667;28;20153;-73
2021/12/23 04:55:21;;;;;;;8.52;3.47;;;;;;;-9.57;90.45;95860.63;5111407;28;20130;-73
2021/12/23 04:57:48;;;;;;;8.65;2.80;;;;;;;-9.57;90.37;95863.13;5092886;28;20604;-72
2021/12/23 05:00:19;;;;;;;4.13;2.45;;;;;;;-9.61;90.20;95854.13;5112092;28;20046;-73
2021/12/23 05:02:47;;;;;;;3.85;2.25;;;;;;;-9.49;90.10;95868.59;5118067;28;20043;-72
2021/12/23 05:05:15;;;;;;;5.47;3.72;;;;;;;-9.64;90.02;95854.28;5108184;28;20067;-72
2021/12/23 05:07:42;;;;;;;11.70;6.20;;;;;;;-9.59;90.30;95862.41;5104145;28;20059;-72
2021/12/23 05:10:11;;;;;;;8.60;4.53;;;;;;;-9.62;90.56;95857.53;5101162;28;20039;-72
2021/12/23 05:12:46;;;;;;;9.57;5.90;;;;;;;-9.64;90.67;95869.41;5108835;28;20386;-73
2021/12/23 05:15:19;;;;;;;8.13;4.85;;;;;;;-9.65;90.90;95865.25;5112579;28;21595;-73
2021/12/23 05:17:47;;;;;;;10.55;4.80;;;;;;;-9.74;91.48;95843.03;5105023;28;20824;-72
2021/12/23 05:20:16;;;;;;;9.75;3.58;;;;;;;-9.65;91.90;95857.69;5109188;28;20401;-73
2021/12/23 05:22:43;;;;;;;8.80;4.22;;;;;;;-9.70;91.59;95859.66;5107879;28;20042;-72
2021/12/23 05:25:11;;;;;;;16.63;7.53;;;;;;;-9.68;91.19;95862.91;5091587;28;20047;-72
2021/12/23 05:27:38;;;;;;;24.48;11.20;;;;;;;-9.73;91.85;95854.75;5111778;27;20053;-73
2021/12/23 05:30:08;;;;;;;21.35;10.95;;;;;;;-9.69;92.18;95861.25;5115365;27;20549;-72
2021/12/23 05:32:35;;;;;;;12.48;6.40;;;;;;;-9.73;92.19;95855.56;5091313;28;20574;-72
2021/12/23 05:35:04;;;;;;;8.15;3.97;;;;;;;-9.81;92.31;95840.84;5116272;27;20051;-72
2021/12/23 05:37:31;;;;;;;9.90;4.43;;;;;;;-9.64;92.54;95869.41;5115601;27;20039;-73
2021/12/23 05:39:58;;;;;;;7.70;5.95;;;;;;;-9.68;92.32;95858.66;5120437;27;20050;-72
2021/12/23 05:42:25;;;;;;;15.00;6.07;;;;;;;-9.63;92.43;95866.00;5110113;27;20035;-73
2021/12/23 05:44:51;;;;;;;7.00;4.85;;;;;;;-9.58;91.92;95869.06;5112914;27;20073;-72
2021/12/23 05:47:19;;;;;;;10.07;5.05;;;;;;;-9.54;91.57;95865.50;5113097;27;20044;-72
2021/12/23 05:49:46;;;;;;;11.32;5.70;;;;;;;-9.49;91.80;95867.75;5111029;27;20043;-72
2021/12/23 05:52:14;;;;;;;10.57;4.82;;;;;;;-9.48;92.10;95865.16;5110954;27;20510;-72
2021/12/23 05:54:41;;;;;;;5.68;3.80;;;;;;;-9.57;92.05;95858.09;5112893;27;20163;-72
2021/12/23 05:57:08;;;;;;;9.18;4.78;;;;;;;-9.64;92.01;95852.56;5107660;27;20048;-73
2021/12/23 05:59:35;;;;;;;13.85;7.18;;;;;;;-9.56;91.77;95867.31;5111343;27;20054;-72
2021/12/23 06:02:05;;;;;;;11.43;6.15;;;;;;;-9.53;91.64;95862.06;5115228;27;20063;-73
2021/12/23 06:04:36;;;;;;;10.20;4.22;;;;;;;-9.59;91.48;95872.50;5115982;27;20043;-73
2021/12/23 06:07:03;;;;;;;13.75;5.05;;;;;;;-9.61;91.27;95871.78;5114732;27;20119;-73
2021/12/23 06:09:30;;;;;;;14.02;5.47;;;;;;;-9.67;91.06;95870.38;5116922;27;20285;-73
2021/12/23 06:11:57;;;;;;;13.68;5.47;;;;;;;-9.61;91.48;95869.25;5111413;27;20042;-73
2021/12/23 06:14:24;;;;;;;13.57;7.28;;;;;;;-9.56;91.59;95867.31;5113420;27;20671;-73
2021/12/23 06:16:51;;;;;;;11.25;5.93;;;;;;;-9.49;91.86;95871.13;5111442;27;20054;-73
2021/12/23 06:19:18;;;;;;;7.40;4.68;;;;;;;-9.53;92.21;95867.09;5115461;27;20047;-72
2021/12/23 06:21:45;;;;;;;12.88;5.00;;;;;;;-9.54;92.46;95850.38;5094326;27;20062;-73
2021/12/23 06:24:12;;;;;;;9.68;6.20;;;;;;;-9.56;92.41;95847.13;5110250;27;20477;-73
2021/12/23 06:26:38;;;;;;;11.32;6.13;;;;;;;-9.35;92.57;95874.59;5118945;27;20523;-74
2021/12/23 06:29:06;;;;;;;11.05;6.25;;;;;;;-9.37;92.82;95866.28;5108489;27;20035;-74
2021/12/23 06:31:33;;;;;;;18.60;8.57;;;;;;;-9.31;92.77;95886.13;5115205;27;20118;-73
2021/12/23 06:34:00;;;;;;;13.35;8.27;;;;;;;-9.37;92.80;95881.44;5093199;27;20048;-73
2021/12/23 06:36:27;;;;;;;18.60;9.57;;;;;;;-9.42;92.71;95879.97;5114614;27;20039;-73
2021/12/23 06:38:54;;;;;;;23.50;11.82;;;;;;;-9.40;92.82;95876.53;5091125;28;20050;-73
2021/12/23 06:41:20;;;;;;;17.70;9.32;;;;;;;-9.34;93.35;95881.28;5108826;27;20405;-73
2021/12/23 06:43:47;;;;;;;32.63;13.77;;;;;;;-9.27;93.12;95890.13;5109602;27;20048;-73
2021/12/23 06:46:14;;;;;;;33.80;14.65;;;;;;;-9.35;93.57;95859.44;5112471;27;20046;-74
2021/12/23 06:48:41;;;;;;;48.67;15.65;;;;;;;-9.15;94.13;95876.81;5107837;27;20043;-74
2021/12/23 06:51:08;;;;;;;35.90;15.63;;;;;;;-9.17;94.29;95866.00;5089773;27;20085;-73
2021/12/23 06:53:36;;;;;;;24.42;13.85;;;;;;;-9.03;95.11;95870.31;5106440;27;20040;-72
2021/12/23 06:56:03;;;;;;;21.98;9.55;;;;;;;-8.98;95.99;95862.44;5105266;27;20513;-73
2021/12/23 06:58:35;;;;;;;22.35;11.23;;;;;;;-8.92;95.95;95867.19;5107079;27;20157;-73
2021/12/23 07:01:02;;;;;;;21.65;10.25;;;;;;;-8.86;96.21;95861.78;5106333;27;20563;-72
2021/12/23 07:03:54;;;;;;;10.65;8.18;;;;;;;-8.83;97.18;95865.84;5107006;27;20489;-73
2021/12/23 07:06:22;;;;;;;13.00;7.90;;;;;;;-8.66;97.42;95874.09;5093762;28;20905;-73
2021/12/23 07:08:50;;;;;;;13.75;7.72;;;;;;;-8.51;97.91;95866.53;5106562;27;20046;-74
2021/12/23 07:11:16;;;;;;;22.20;7.90;;;;;;;-8.35;98.39;95877.34;5112261;27;20526;-73
2021/12/23 07:13:43;;;;;;;7.93;6.15;;;;;;;-8.16;100.00;95881.31;5102987;27;20044;-73
2021/12/23 07:16:11;;;;;;;16.65;8.32;;;;;;;-8.07;100.00;95875.72;5100871;27;20042;-74
2021/12/23 07:18:48;;;;;;;21.02;10.60;;;;;;;-7.88;100.00;95881.31;5103402;27;20089;-74
2021/12/23 07:21:16;;;;;;;20.38;7.75;;;;;;;-7.80;100.00;95862.34;5077862;27;20051;-74
2021/12/23 07:23:43;;;;;;;11.57;6.43;;;;;;;-7.62;100.00;95861.19;5107589;27;20063;-74
2021/12/23 07:26:10;;;;;;;12.77;7.30;;;;;;;-7.37;100.00;95869.81;5089816;28;20075;-74
2021/12/23 07:28:37;;;;;;;8.93;5.88;;;;;;;-7.30;100.00;95855.88;5106708;27;20408;-74
2021/12/23 07:31:04;;;;;;;11.75;4.88;;;;;;;-7.06;100.00;95878.84;5106117;27;20397;-73
2021/12/23 07:33:31;;;;;;;15.90;8.45;;;;;;;-6.88;100.00;95873.50;5105626;27;20590;-74
2021/12/23 07:35:58;;;;;;;19.20;8.88;;;;;;;-6.70;99.94;95869.78;5111414;27;20051;-73
2021/12/23 07:38:30;;;;;;;14.98;8.07;;;;;;;-6.46;99.42;95880.06;5114553;27;20035;-74
2021/12/23 07:40:58;;;;;;;16.63;8.38;;;;;;;-6.29;99.68;95880.69;5097069;27;20053;-73
2021/12/23 07:43:56;;;;;;;16.33;8.68;;;;;;;-6.23;96.80;95877.72;5106860;27;20496;-74
2021/12/23 07:46:18;;;;;;;12.00;7.20;;;;;;;-6.25;95.77;95884.63;5108336;27;20036;-74
2021/12/23 07:48:45;;;;;;;23.17;11.65;;;;;;;-6.14;95.64;95882.19;5104232;27;20512;-74
2021/12/23 07:51:13;;;;;;;15.15;9.98;;;;;;;-6.00;94.66;95884.63;5104133;27;20083;-74
2021/12/23 07:53:40;;;;;;;15.63;7.75;;;;;;;-5.95;93.83;95882.56;5102755;27;20755;-74
2021/12/23 07:56:07;;;;;;;19.00;10.10;;;;;;;-5.92;93.41;95885.78;5103240;28;20069;-74
2021/12/23 07:58:34;;;;;;;25.58;12.10;;;;;;;-5.81;94.11;95880.81;5108075;27;20102;-73
2021/12/23 08:01:01;;;;;;;25.73;12.52;;;;;;;-5.72;93.86;95887.81;5105793;27;20039;-73
2021/12/23 08:03:28;;;;;;;22.70;10.68;;;;;;;-5.81;93.13;95885.91;5086402;28;20518;-74
2021/12/23 08:05:55;;;;;;;20.73;10.25;;;;;;;-5.76;94.01;95876.25;5102129;27;20048;-74
2021/12/23 08:08:22;;;;;;;29.70;9.90;;;;;;;-5.65;93.44;95889.00;5105700;27;20067;-74
2021/12/23 08:10:50;;;;;;;18.27;9.98;;;;;;;-5.71;93.82;95889.41;5107566;27;20044;-74
2021/12/23 08:13:18;;;;;;;16.27;8.18;;;;;;;-5.62;93.29;95888.81;5114218;27;20047;-74
2021/12/23 08:15:45;;;;;;;24.30;12.00;;;;;;;-5.54;93.33;95890.00;5105232;27;20044;-74
2021/12/23 08:18:12;;;;;;;24.65;13.20;;;;;;;-5.71;92.50;95863.22;5106856;27;20512;-75
2021/12/23 08:20:39;;;;;;;19.92;10.15;;;;;;;-5.45;93.90;95886.84;5109339;27;20039;-75
2021/12/23 08:23:06;;;;;;;19.25;9.10;;;;;;;-5.29;94.00;95889.94;5113245;28;20051;-75
2021/12/23 08:25:33;;;;;;;22.05;10.48;;;;;;;-5.21;94.61;95876.69;5096713;28;20770;-75
2021/12/23 08:28:01;;;;;;;24.90;11.20;;;;;;;-5.19;95.20;95860.41;5109079;28;20097;-75
2021/12/23 08:30:32;;;;;;;26.05;11.15;;;;;;;-4.88;93.41;95882.81;5090133;28;20046;-74
2021/12/23 08:32:59;;;;;;;28.98;14.38;;;;;;;-4.85;93.31;95863.09;5115769;28;20490;-75
2021/12/23 08:35:26;;;;;;;98.20;44.42;;;;;;;-4.54;93.43;95881.19;5118840;28;20039;-76
2021/12/23 08:37:53;;;;;;;26.83;12.30;;;;;;;-4.52;91.25;95871.75;5117618;28;20040;-75
2021/12/23 08:40:23;;;;;;;20.88;11.70;;;;;;;-4.53;91.13;95877.75;5114615;28;20044;-76
2021/12/23 08:42:51;;;;;;;17.52;10.95;;;;;;;-4.48;93.58;95870.59;5113447;28;20047;-75
2021/12/23 08:45:19;;;;;;;25.92;12.25;;;;;;;-4.38;93.05;95868.16;5118136;28;20051;-76
2021/12/23 08:47:47;;;;;;;24.17;11.63;;;;;;;-4.36;90.19;95853.59;5116754;28;20059;-74
2021/12/23 08:50:16;;;;;;;16.55;9.10;;;;;;;-4.20;89.32;95867.75;5108608;28;20078;-75
2021/12/23 08:52:43;;;;;;;25.63;12.88;;;;;;;-4.16;91.77;95869.97;5111367;28;20050;-75
2021/12/23 08:55:12;;;;;;;23.55;12.82;;;;;;;-4.12;88.31;95865.44;5088718;28;20040;-74
2021/12/23 08:57:40;;;;;;;17.45;10.98;;;;;;;-3.98;89.52;95852.50;5110342;28;20102;-75
2021/12/23 09:00:10;;;;;;;24.70;12.60;;;;;;;-3.91;89.56;95857.91;5096576;28;20142;-75
2021/12/23 09:02:38;;;;;;;25.48;11.35;;;;;;;-3.90;88.15;95839.19;5110214;27;20035;-75
2021/12/23 09:05:06;;;;;;;30.40;13.38;;;;;;;-3.70;86.94;95846.09;5107908;27;20421;-75
2021/12/23 09:07:33;;;;;;;25.00;11.57;;;;;;;-3.32;86.29;95847.41;5100287;28;20509;-75
2021/12/23 09:10:00;;;;;;;18.85;8.85;;;;;;;-3.30;84.70;95843.00;5104257;27;20039;-76
2021/12/23 09:12:27;;;;;;;17.85;9.82;;;;;;;-3.41;83.14;95820.09;5082079;27;20055;-75
2021/12/23 09:14:54;;;;;;;25.90;11.13;;;;;;;-3.28;82.44;95825.88;5102181;27;20053;-75
2021/12/23 09:17:21;;;;;;;23.85;11.68;;;;;;;-3.25;83.08;95819.72;5111633;27;20122;-77
2021/12/23 09:19:48;;;;;;;17.33;9.63;;;;;;;-3.05;81.86;95820.69;5114630;27;20032;-74
2021/12/23 09:22:15;;;;;;;19.95;10.27;;;;;;;-3.09;83.25;95804.81;5096982;27;20054;-77
2021/12/23 09:24:45;;;;;;;19.70;8.95;;;;;;;-2.60;81.51;95809.44;5117261;27;20050;-77
2021/12/23 09:27:24;;;;;;;17.80;9.23;;;;;;;-2.18;79.20;95810.22;5118382;27;20056;-78
2021/12/23 09:35:05;;;;;;;22.75;11.32;;;;;;;-1.29;74.26;95801.03;5111564;27;20045;-78
2021/12/23 09:37:32;;;;;;;18.35;8.82;;;;;;;-1.07;71.82;95795.63;5110198;27;20106;-77
2021/12/23 09:40:02;;;;;;;22.60;8.43;;;;;;;-0.72;73.16;95799.41;5112865;27;20047;-78
2021/12/23 09:42:32;;;;;;;26.65;9.05;;;;;;;-0.49;68.73;95801.63;5114786;27;20480;-77
2021/12/23 09:45:05;;;;;;;22.05;11.15;;;;;;;-0.36;68.11;95794.47;5120565;27;20535;-79
2021/12/23 09:47:34;;;;;;;32.28;11.15;;;;;;;0.09;68.50;95783.50;5120994;27;20061;-78
2021/12/23 09:50:06;;;;;;;24.85;12.38;;;;;;;0.18;68.25;95787.78;5110404;27;20039;-77
2021/12/23 09:52:37;;;;;;;24.38;10.73;;;;;;;0.43;66.08;95790.59;5106431;27;20137;-78
2021/12/23 09:55:05;;;;;;;25.17;10.95;;;;;;;0.41;66.37;95781.44;5107600;27;20047;-77
2021/12/23 09:57:32;;;;;;;23.83;8.98;;;;;;;0.61;64.27;95777.00;5116594;27;20436;-78
2021/12/23 10:00:00;;;;;;;19.95;9.13;;;;;;;0.61;63.00;95757.28;5109781;27;20050;-78
2021/12/23 10:02:27;;;;;;;23.50;10.15;;;;;;;1.04;62.35;95762.63;5107437;27;20046;-77
2021/12/23 10:04:54;;;;;;;37.15;13.38;;;;;;;1.10;59.22;95737.19;5101300;27;20071;-77
2021/12/23 10:07:21;;;;;;;19.58;9.85;;;;;;;1.48;58.26;95754.94;5118801;27;20059;-78
2021/12/23 10:10:07;;;;;;;12.75;7.72;;;;;;;1.81;58.18;95744.81;5089907;28;20032;-78
2021/12/23 10:13:09;;;;;;;16.95;7.40;;;;;;;2.09;55.55;95738.50;5096935;27;20035;-78
2021/12/23 10:38:44;;;;;;;22.42;9.93;;;;;;;4.38;46.82;95710.06;5114453;27;20047;-79
2021/12/23 10:41:10;;;;;;;;;;;;;;;4.64;44.38;95714.91;5113370;27;20496;-78
2021/12/23 10:43:59;;;;;;;23.50;8.77;;;;;;;4.73;44.82;95716.44;5115168;27;20010;-79
2021/12/23 10:46:34;;;;;;;19.20;9.73;;;;;;;5.01;45.12;95710.75;5119054;27;20436;-77
2021/12/23 10:51:59;;;;;;;17.55;8.77;;;;;;;5.03;43.84;95703.63;5112251;27;20048;-79
2021/12/23 11:00:28;;;;;;;15.82;8.35;;;;;;;4.81;43.69;95704.44;5116774;27;20043;-78
2021/12/23 11:03:05;;;;;;;17.67;8.20;;;;;;;4.97;42.44;95683.69;5112235;27;20027;-78
2021/12/23 11:05:42;;;;;;;17.17;7.70;;;;;;;5.20;41.99;95693.16;5110581;27;20043;-79
2021/12/23 11:38:39;;;;;;;18.38;9.13;;;;;;;6.48;37.11;95635.06;5103971;28;20054;-73
2021/12/23 11:41:30;;;;;;;22.55;12.48;;;;;;;5.71;40.02;95633.84;5101703;28;20055;-74
2021/12/23 11:43:59;;;;;;;21.70;9.77;;;;;;;5.51;40.46;95629.22;5107335;27;20042;-74
2021/12/23 11:46:41;;;;;;;23.02;10.07;;;;;;;5.32;40.28;95629.75;5107504;27;20039;-73
2021/12/23 11:49:11;;;;;;;23.05;9.55;;;;;;;4.60;42.31;95626.72;5103512;27;20512;-73
2021/12/23 11:52:01;;;;;;;18.88;9.98;;;;;;;4.68;43.74;95623.28;5085624;28;20171;-73
2021/12/23 11:54:35;;;;;;;27.38;15.23;;;;;;;5.47;41.55;95617.63;5101994;28;20032;-72
2021/12/23 11:57:14;;;;;;;19.70;10.73;;;;;;;6.59;39.29;95615.66;5109359;27;20043;-74
2021/12/23 11:59:43;;;;;;;26.33;14.50;;;;;;;7.17;37.84;95618.09;5101927;28;20039;-73
2021/12/23 12:02:21;;;;;;;19.00;9.05;;;;;;;7.51;36.76;95613.88;5102782;28;20459;-73
2021/12/23 12:04:59;;;;;;;20.42;9.70;;;;;;;8.17;36.29;95603.72;5113979;27;20039;-72
2021/12/23 12:07:26;;;;;;;17.67;9.88;;;;;;;8.05;35.05;95605.31;5106392;27;20067;-73
2021/12/23 12:10:09;;;;;;;19.30;9.93;;;;;;;6.88;37.00;95609.53;5106963;27;20047;-74
2021/12/23 12:12:56;;;;;;;21.50;9.30;;;;;;;6.66;37.11;95609.56;5102253;28;20040;-72
2021/12/23 12:15:39;;;;;;;21.70;10.10;;;;;;;6.62;38.72;95602.34;5103575;28;20401;-71
2021/12/23 12:18:11;;;;;;;24.73;10.52;;;;;;;6.86;37.99;95606.31;5087390;27;20055;-72
2021/12/23 12:20:47;;;;;;;18.30;9.80;;;;;;;7.76;35.77;95606.41;5102440;28;20035;-73
2021/12/23 12:23:19;;;;;;;21.05;10.20;;;;;;;8.58;35.16;95605.41;5101842;27;20036;-71
2021/12/23 12:25:52;;;;;;;19.00;9.25;;;;;;;9.08;33.20;95593.81;5100068;28;20449;-72
2021/12/23 12:28:24;;;;;;;20.97;9.83;;;;;;;8.46;33.02;95601.81;5102678;28;20040;-72
2021/12/23 12:31:06;;;;;;;19.33;9.50;;;;;;;8.91;33.78;95594.25;5103454;28;20051;-72
2021/12/23 12:33:36;;;;;;;24.80;11.18;;;;;;;9.18;32.63;95589.00;5102183;28;20036;-72
2021/12/23 12:36:06;;;;;;;21.27;10.35;;;;;;;9.10;31.97;95597.00;5106281;27;20047;-73
2021/12/23 12:38:34;;;;;;;18.38;9.50;;;;;;;9.56;31.95;95593.47;5108393;28;20048;-72
2021/12/23 12:41:16;;;;;;;16.80;9.45;;;;;;;9.22;31.73;95590.19;5108485;27;20047;-73
2021/12/23 12:43:52;;;;;;;23.10;11.75;;;;;;;7.85;33.30;95595.69;5105920;28;20035;-73
2021/12/23 12:49:27;;;;;;;21.70;10.20;;;;;;;7.20;35.23;95586.59;5106002;27;20082;-72
2021/12/23 12:52:14;;;;;;;23.30;11.60;;;;;;;7.73;34.90;95576.47;5090520;28;20055;-73
2021/12/23 12:54:48;;;;;;;33.30;13.60;;;;;;;7.61;35.88;95583.22;5095953;27;20052;-71
2021/12/23 12:57:17;;;;;;;39.63;18.85;;;;;;;6.98;34.90;95571.13;5091311;27;20118;-72